createdAt,value
2018-06-27T00:00:41.388Z,11.33
2018-06-27T00:01:41.368Z,11.23
2018-06-27T00:02:41.508Z,11.31
2018-06-27T00:03:41.377Z,11.47
2018-06-27T00:04:41.374Z,11.44
2018-06-27T00:05:41.387Z,11.41
2018-06-27T00:06:41.381Z,11.44
2018-06-27T00:07:41.386Z,11.43
2018-06-27T00:08:41.563Z,11.34
2018-06-27T00:09:41.392Z,11.28
2018-06-27T00:10:41.463Z,11.26
2018-06-27T00:11:41.610Z,11.2
2018-06-27T00:12:41.390Z,11.34
2018-06-27T00:13:41.407Z,11.32
2018-06-27T00:14:41.385Z,11.3
2018-06-27T00:15:41.441Z,11.28
2018-06-27T00:16:41.511Z,11.3
2018-06-27T00:17:41.403Z,11.16
2018-06-27T00:18:41.386Z,11.09
2018-06-27T00:19:41.489Z,11.19
2018-06-27T00:20:41.445Z,11.22
2018-06-27T00:21:41.484Z,11.18
2018-06-27T00:22:41.408Z,11.17
2018-06-27T00:23:41.517Z,11.08
2018-06-27T00:24:41.433Z,11.18
2018-06-27T00:25:41.461Z,11.14
2018-06-27T00:26:41.441Z,11.19
2018-06-27T00:27:41.414Z,11.11
2018-06-27T00:28:41.424Z,11.08
2018-06-27T00:29:41.401Z,11.18
2018-06-27T00:30:41.396Z,11.26
2018-06-27T00:31:41.502Z,11.19
2018-06-27T00:32:41.418Z,11.21
2018-06-27T00:33:41.395Z,11.08
2018-06-27T00:34:41.390Z,11.12
2018-06-27T00:35:41.471Z,11.1
2018-06-27T00:36:41.395Z,11.05
2018-06-27T00:37:41.416Z,11.08
2018-06-27T00:38:41.429Z,11.22
2018-06-27T00:39:41.414Z,11.13
2018-06-27T00:40:41.443Z,11.29
2018-06-27T00:41:41.481Z,11.29
2018-06-27T00:42:41.460Z,11.23
2018-06-27T00:43:41.538Z,11.14
2018-06-27T00:44:41.432Z,11.26
2018-06-27T00:45:41.441Z,11.27
2018-06-27T00:46:41.435Z,11.2
2018-06-27T00:47:41.389Z,11.19
2018-06-27T00:48:41.426Z,11.17
2018-06-27T00:49:41.468Z,11.16
2018-06-27T00:50:41.486Z,11.25
2018-06-27T00:51:41.412Z,11.24
2018-06-27T00:52:41.400Z,11.09
2018-06-27T00:53:41.465Z,11.1
2018-06-27T00:54:41.410Z,11.03
2018-06-27T00:55:41.421Z,11
2018-06-27T00:56:41.442Z,11.13
2018-06-27T00:57:41.419Z,10.99
2018-06-27T00:58:41.426Z,10.98
2018-06-27T00:59:41.428Z,11.07
2018-06-27T01:00:41.411Z,11.1
2018-06-27T01:01:41.440Z,11.21
2018-06-27T01:02:41.650Z,11.21
2018-06-27T01:03:41.400Z,11.17
2018-06-27T01:04:41.396Z,11.16
2018-06-27T01:05:41.433Z,11.04
2018-06-27T01:06:41.424Z,11.08
2018-06-27T01:07:41.419Z,11.15
2018-06-27T01:08:41.409Z,11.07
2018-06-27T01:09:41.431Z,11.01
2018-06-27T01:10:41.949Z,11.01
2018-06-27T01:11:41.445Z,11.11
2018-06-27T01:12:41.430Z,11.13
2018-06-27T01:13:41.471Z,10.99
2018-06-27T01:14:41.440Z,11.06
2018-06-27T01:15:41.445Z,11.1
2018-06-27T01:16:41.590Z,11.05
2018-06-27T01:17:41.443Z,11.11
2018-06-27T01:18:41.431Z,11.03
2018-06-27T01:19:41.530Z,11.01
2018-06-27T01:20:41.444Z,11.04
2018-06-27T01:21:41.631Z,11.1
2018-06-27T01:22:41.828Z,11.12
2018-06-27T01:23:41.462Z,11.07
2018-06-27T01:24:41.451Z,11.08
2018-06-27T01:25:41.425Z,11.06
2018-06-27T01:26:41.453Z,11
2018-06-27T01:27:41.536Z,10.95
2018-06-27T01:28:41.430Z,10.84
2018-06-27T01:29:41.445Z,10.92
2018-06-27T01:30:41.437Z,11.05
2018-06-27T01:31:41.542Z,11.02
2018-06-27T01:32:41.449Z,10.95
2018-06-27T01:33:41.556Z,10.95
2018-06-27T01:34:41.574Z,10.93
2018-06-27T01:35:41.528Z,10.95
2018-06-27T01:36:41.759Z,11.01
2018-06-27T01:37:41.735Z,10.97
2018-06-27T01:38:41.576Z,10.95
2018-06-27T01:39:41.462Z,11
2018-06-27T01:40:41.598Z,10.97
2018-06-27T01:41:41.599Z,11
2018-06-27T01:42:41.565Z,10.95
2018-06-27T01:43:41.579Z,11.03
2018-06-27T01:44:41.565Z,11.01
2018-06-27T01:45:41.501Z,10.9
2018-06-27T01:46:41.465Z,11.05
2018-06-27T01:47:41.569Z,11.02
2018-06-27T01:48:41.508Z,10.98
2018-06-27T01:49:41.475Z,10.98
2018-06-27T01:50:41.515Z,10.98
2018-06-27T01:51:41.496Z,10.87
2018-06-27T01:52:41.513Z,10.92
2018-06-27T01:53:41.479Z,10.96
2018-06-27T01:54:41.634Z,10.85
2018-06-27T01:55:41.447Z,10.98
2018-06-27T01:56:41.472Z,10.94
2018-06-27T01:57:41.456Z,10.9
2018-06-27T01:58:41.507Z,10.95
2018-06-27T01:59:41.466Z,10.88
2018-06-27T02:00:41.456Z,10.87
2018-06-27T02:01:41.494Z,10.84
2018-06-27T02:02:41.644Z,10.79
2018-06-27T02:03:41.477Z,10.84
2018-06-27T02:04:41.653Z,10.8
2018-06-27T02:05:41.480Z,10.91
2018-06-27T02:06:41.477Z,10.99
2018-06-27T02:07:41.474Z,10.9
2018-06-27T02:08:41.469Z,10.99
2018-06-27T02:09:41.474Z,10.83
2018-06-27T02:10:41.510Z,10.85
2018-06-27T02:11:41.466Z,10.97
2018-06-27T02:12:41.472Z,10.87
2018-06-27T02:13:41.470Z,10.81
2018-06-27T02:14:41.478Z,10.98
2018-06-27T02:15:41.480Z,10.93
2018-06-27T02:16:41.469Z,10.95
2018-06-27T02:17:41.499Z,11.03
2018-06-27T02:18:41.487Z,11.02
2018-06-27T02:19:41.493Z,11.01
2018-06-27T02:20:41.500Z,11
2018-06-27T02:21:41.464Z,10.89
2018-06-27T02:22:41.489Z,10.98
2018-06-27T02:23:41.497Z,11
2018-06-27T02:24:41.548Z,10.95
2018-06-27T02:25:41.495Z,10.99
2018-06-27T02:26:41.486Z,10.92
2018-06-27T02:27:41.491Z,10.96
2018-06-27T02:28:41.507Z,10.8
2018-06-27T02:29:41.463Z,10.85
2018-06-27T02:30:41.534Z,10.74
2018-06-27T02:31:41.510Z,10.77
2018-06-27T02:32:41.539Z,10.95
2018-06-27T02:33:41.652Z,10.89
2018-06-27T02:34:41.588Z,10.81
2018-06-27T02:35:41.561Z,10.83
2018-06-27T02:36:41.620Z,10.91
2018-06-27T02:37:41.484Z,10.95
2018-06-27T02:38:41.534Z,10.96
2018-06-27T02:39:41.560Z,10.93
2018-06-27T02:40:41.529Z,10.91
2018-06-27T02:41:41.578Z,10.91
2018-06-27T02:42:41.522Z,10.84
2018-06-27T02:43:41.519Z,10.82
2018-06-27T02:44:41.566Z,10.9
2018-06-27T02:45:41.492Z,10.83
2018-06-27T02:46:41.498Z,10.74
2018-06-27T02:47:41.483Z,10.78
2018-06-27T02:48:41.520Z,10.77
2018-06-27T02:49:41.958Z,10.82
2018-06-27T02:50:41.506Z,10.76
2018-06-27T02:51:41.518Z,10.72
2018-06-27T02:52:41.518Z,10.63
2018-06-27T02:53:41.508Z,10.82
2018-06-27T02:54:41.563Z,10.81
2018-06-27T02:55:41.533Z,10.73
2018-06-27T02:56:41.572Z,10.79
2018-06-27T02:57:41.594Z,10.78
2018-06-27T02:58:41.526Z,10.74
2018-06-27T02:59:41.621Z,10.69
2018-06-27T03:00:41.548Z,10.68
2018-06-27T03:01:41.565Z,10.67
2018-06-27T03:02:41.643Z,10.6
2018-06-27T03:03:41.626Z,10.64
2018-06-27T03:04:41.549Z,10.67
2018-06-27T03:05:41.606Z,10.61
2018-06-27T03:06:41.525Z,10.64
2018-06-27T03:07:41.560Z,10.58
2018-06-27T03:08:41.565Z,10.56
2018-06-27T03:09:41.542Z,10.5
2018-06-27T03:10:41.502Z,10.6
2018-06-27T03:11:41.703Z,10.54
2018-06-27T03:12:41.651Z,10.55
2018-06-27T03:13:41.561Z,10.6
2018-06-27T03:14:41.524Z,10.6
2018-06-27T03:15:41.565Z,10.58
2018-06-27T03:16:41.579Z,10.62
2018-06-27T03:17:41.553Z,10.61
2018-06-27T03:18:41.561Z,10.55
2018-06-27T03:19:41.551Z,10.68
2018-06-27T03:20:41.530Z,10.67
2018-06-27T03:21:41.531Z,10.6
2018-06-27T03:22:41.520Z,10.66
2018-06-27T03:23:41.521Z,10.72
2018-06-27T03:24:41.555Z,10.63
2018-06-27T03:25:41.599Z,10.61
2018-06-27T03:26:41.529Z,10.62
2018-06-27T03:27:41.580Z,10.57
2018-06-27T03:28:41.626Z,10.55
2018-06-27T03:29:41.549Z,10.61
2018-06-27T03:30:41.532Z,10.65
2018-06-27T03:31:41.583Z,10.69
2018-06-27T03:32:41.514Z,10.56
2018-06-27T03:33:41.755Z,10.6
2018-06-27T03:34:41.513Z,10.71
2018-06-27T03:35:41.517Z,10.7
2018-06-27T03:36:41.561Z,10.72
2018-06-27T03:37:41.536Z,10.67
2018-06-27T03:38:41.551Z,10.61
2018-06-27T03:39:41.533Z,10.55
2018-06-27T03:40:41.553Z,10.67
2018-06-27T03:41:41.561Z,10.66
2018-06-27T03:42:41.563Z,10.7
2018-06-27T03:43:41.538Z,10.67
2018-06-27T03:44:41.558Z,10.67
2018-06-27T03:45:41.527Z,10.58
2018-06-27T03:46:41.610Z,10.64
2018-06-27T03:47:41.579Z,10.61
2018-06-27T03:48:41.575Z,10.66
2018-06-27T03:49:41.560Z,10.64
2018-06-27T03:50:41.775Z,10.58
2018-06-27T03:51:41.547Z,10.6
2018-06-27T03:52:41.740Z,10.68
2018-06-27T03:53:41.554Z,10.7
2018-06-27T03:54:41.569Z,10.61
2018-06-27T03:55:41.586Z,10.67
2018-06-27T03:56:41.554Z,10.62
2018-06-27T03:57:41.589Z,10.62
2018-06-27T03:58:41.668Z,10.72
2018-06-27T03:59:41.573Z,10.72
2018-06-27T04:00:41.548Z,10.7
2018-06-27T04:01:41.671Z,10.66
2018-06-27T04:02:41.763Z,10.69
2018-06-27T04:03:41.552Z,10.69
2018-06-27T04:04:41.607Z,10.73
2018-06-27T04:05:41.605Z,10.76
2018-06-27T04:06:41.582Z,10.73
2018-06-27T04:07:41.559Z,10.75
2018-06-27T04:08:41.546Z,10.67
2018-06-27T04:09:41.622Z,10.74
2018-06-27T04:10:41.542Z,10.7
2018-06-27T04:11:41.571Z,10.73
2018-06-27T04:12:42.555Z,10.78
2018-06-27T04:13:41.551Z,10.79
2018-06-27T04:14:41.691Z,10.76
2018-06-27T04:15:41.770Z,10.76
2018-06-27T04:16:41.581Z,10.66
2018-06-27T04:17:41.588Z,10.64
2018-06-27T04:18:41.557Z,10.65
2018-06-27T04:19:41.561Z,10.65
2018-06-27T04:20:41.564Z,10.68
2018-06-27T04:21:41.578Z,10.61
2018-06-27T04:22:41.585Z,10.59
2018-06-27T04:23:41.605Z,10.69
2018-06-27T04:24:41.569Z,10.75
2018-06-27T04:25:41.584Z,10.8
2018-06-27T04:26:41.557Z,10.76
2018-06-27T04:27:41.561Z,10.79
2018-06-27T04:28:41.589Z,10.77
2018-06-27T04:29:41.564Z,10.82
2018-06-27T04:30:41.551Z,10.8
2018-06-27T04:31:41.554Z,10.86
2018-06-27T04:32:41.640Z,10.87
2018-06-27T04:33:41.541Z,10.83
2018-06-27T04:34:41.586Z,10.77
2018-06-27T04:35:41.624Z,10.74
2018-06-27T04:36:41.907Z,10.8
2018-06-27T04:37:41.617Z,10.74
2018-06-27T04:38:41.531Z,10.73
2018-06-27T04:39:41.564Z,10.74
2018-06-27T04:40:41.610Z,10.73
2018-06-27T04:41:41.646Z,10.65
2018-06-27T04:42:41.678Z,10.66
2018-06-27T04:43:41.621Z,10.67
2018-06-27T04:44:41.546Z,10.75
2018-06-27T04:45:41.586Z,10.67
2018-06-27T04:46:41.616Z,10.67
2018-06-27T04:47:41.659Z,10.7
2018-06-27T04:48:41.617Z,10.68
2018-06-27T04:49:41.572Z,10.72
2018-06-27T04:50:41.604Z,10.78
2018-06-27T04:51:41.579Z,10.75
2018-06-27T04:52:41.561Z,10.82
2018-06-27T04:53:41.601Z,10.81
2018-06-27T04:54:41.570Z,10.81
2018-06-27T04:55:41.614Z,10.85
2018-06-27T04:56:41.584Z,10.84
2018-06-27T04:57:41.600Z,10.85
2018-06-27T04:58:41.646Z,10.84
2018-06-27T04:59:41.649Z,10.93
2018-06-27T05:00:41.615Z,10.87
2018-06-27T05:01:41.946Z,10.96
2018-06-27T05:02:41.570Z,10.97
2018-06-27T05:03:41.566Z,10.98
2018-06-27T05:04:41.579Z,10.95
2018-06-27T05:05:41.632Z,10.89
2018-06-27T05:06:41.624Z,11.02
2018-06-27T05:07:41.594Z,11.03
2018-06-27T05:08:41.596Z,11.06
2018-06-27T05:09:41.589Z,11
2018-06-27T05:10:41.609Z,10.96
2018-06-27T05:11:41.916Z,10.99
2018-06-27T05:12:41.668Z,10.99
2018-06-27T05:13:41.587Z,10.93
2018-06-27T05:14:41.583Z,10.98
2018-06-27T05:15:41.593Z,10.98
2018-06-27T05:16:41.608Z,10.94
2018-06-27T05:17:41.729Z,10.91
2018-06-27T05:18:41.623Z,10.99
2018-06-27T05:19:41.676Z,11.01
2018-06-27T05:20:41.610Z,11.01
2018-06-27T05:21:41.932Z,11.06
2018-06-27T05:22:41.678Z,11.06
2018-06-27T05:23:41.588Z,11.03
2018-06-27T05:24:41.595Z,11.04
2018-06-27T05:25:41.786Z,10.98
2018-06-27T05:26:41.766Z,10.99
2018-06-27T05:27:42.844Z,10.97
2018-06-27T05:28:41.667Z,11.01
2018-06-27T05:29:41.580Z,11.03
2018-06-27T05:30:41.586Z,11.04
2018-06-27T05:31:41.646Z,11.07
2018-06-27T05:32:41.604Z,10.99
2018-06-27T05:33:41.595Z,11.03
2018-06-27T05:34:41.616Z,11.03
2018-06-27T05:35:41.675Z,11.05
2018-06-27T05:36:41.632Z,11.06
2018-06-27T05:37:41.589Z,10.9
2018-06-27T05:38:41.594Z,10.94
2018-06-27T05:39:41.605Z,10.91
2018-06-27T05:40:41.592Z,10.9
2018-06-27T05:41:41.805Z,10.95
2018-06-27T05:42:41.649Z,10.84
2018-06-27T05:43:42.657Z,10.92
2018-06-27T05:44:41.582Z,10.9
2018-06-27T05:45:41.911Z,10.91
2018-06-27T05:46:41.651Z,10.89
2018-06-27T05:47:41.600Z,10.93
2018-06-27T05:48:41.619Z,10.89
2018-06-27T05:49:41.603Z,10.97
2018-06-27T05:50:41.605Z,10.9
2018-06-27T05:51:42.407Z,10.91
2018-06-27T05:52:41.715Z,10.93
2018-06-27T05:53:41.653Z,10.93
2018-06-27T05:54:41.664Z,10.89
2018-06-27T05:55:41.578Z,10.9
2018-06-27T05:56:41.609Z,10.91
2018-06-27T05:57:41.617Z,10.93
2018-06-27T05:58:41.598Z,11.01
2018-06-27T05:59:41.918Z,10.96
2018-06-27T06:00:41.647Z,10.98
2018-06-27T06:01:41.629Z,11
2018-06-27T06:02:41.784Z,11
2018-06-27T06:03:41.642Z,10.95
2018-06-27T06:04:41.661Z,10.96
2018-06-27T06:05:41.641Z,10.93
2018-06-27T06:06:41.602Z,10.97
2018-06-27T06:07:41.604Z,11.05
2018-06-27T06:08:41.608Z,11.04
2018-06-27T06:09:41.610Z,10.96
2018-06-27T06:10:42.044Z,11.03
2018-06-27T06:11:41.681Z,11.08
2018-06-27T06:12:41.600Z,11.01
2018-06-27T06:13:41.661Z,11.06
2018-06-27T06:14:41.626Z,11.03
2018-06-27T06:15:41.643Z,11.08
2018-06-27T06:16:41.627Z,11.09
2018-06-27T06:17:41.676Z,11.15
2018-06-27T06:18:41.601Z,11.11
2018-06-27T06:19:42.021Z,11.11
2018-06-27T06:20:41.668Z,11.09
2018-06-27T06:21:41.657Z,11.14
2018-06-27T06:22:41.703Z,11.14
2018-06-27T06:23:41.687Z,11.21
2018-06-27T06:24:41.775Z,11.19
2018-06-27T06:25:42.485Z,11.11
2018-06-27T06:26:41.782Z,11.13
2018-06-27T06:27:41.687Z,11.14
2018-06-27T06:28:41.641Z,11.11
2018-06-27T06:29:41.681Z,11.1
2018-06-27T06:30:41.639Z,11.13
2018-06-27T06:31:41.874Z,11.11
2018-06-27T06:32:41.684Z,11.12
2018-06-27T06:33:41.762Z,11.15
2018-06-27T06:34:41.665Z,11.17
2018-06-27T06:35:41.634Z,11.21
2018-06-27T06:36:41.639Z,11.12
2018-06-27T06:37:41.625Z,11.16
2018-06-27T06:38:41.670Z,11.16
2018-06-27T06:39:41.660Z,11.16
2018-06-27T06:40:42.057Z,11.15
2018-06-27T06:41:41.696Z,11.17
2018-06-27T06:42:41.638Z,11.16
2018-06-27T06:43:41.630Z,11.16
2018-06-27T06:44:41.634Z,11.15
2018-06-27T06:45:41.670Z,11.18
2018-06-27T06:46:41.651Z,11.15
2018-06-27T06:47:41.662Z,11.19
2018-06-27T06:48:41.627Z,11.25
2018-06-27T06:49:41.667Z,11.29
2018-06-27T06:50:41.614Z,11.23
2018-06-27T06:51:41.651Z,11.07
2018-06-27T06:52:41.661Z,11.18
2018-06-27T06:53:42.036Z,11.21
2018-06-27T06:54:41.648Z,11.26
2018-06-27T06:55:41.649Z,11.27
2018-06-27T06:56:41.642Z,11.26
2018-06-27T06:57:41.651Z,11.22
2018-06-27T06:58:42.184Z,11.18
2018-06-27T06:59:41.868Z,11.21
2018-06-27T07:00:42.797Z,11.26
2018-06-27T07:01:41.788Z,11.27
2018-06-27T07:02:41.787Z,11.37
2018-06-27T07:03:41.751Z,11.25
2018-06-27T07:04:41.636Z,11.28
2018-06-27T07:05:41.664Z,11.32
2018-06-27T07:06:41.694Z,11.29
2018-06-27T07:07:41.855Z,11.24
2018-06-27T07:08:41.696Z,11.29
2018-06-27T07:09:41.651Z,11.37
2018-06-27T07:10:41.715Z,11.31
2018-06-27T07:11:41.699Z,11.34
2018-06-27T07:12:41.727Z,11.23
2018-06-27T07:13:41.720Z,11.3
2018-06-27T07:14:41.662Z,11.3
2018-06-27T07:15:41.985Z,11.36
2018-06-27T07:16:41.666Z,11.4
2018-06-27T07:17:42.411Z,11.38
2018-06-27T07:18:41.652Z,11.34
2018-06-27T07:19:41.719Z,11.37
2018-06-27T07:20:41.721Z,11.39
2018-06-27T07:21:41.753Z,11.36
2018-06-27T07:22:41.670Z,11.37
2018-06-27T07:23:41.713Z,11.35
2018-06-27T07:24:41.672Z,11.35
2018-06-27T07:25:41.755Z,11.32
2018-06-27T07:26:41.685Z,11.36
2018-06-27T07:27:41.715Z,11.26
2018-06-27T07:28:42.621Z,11.26
2018-06-27T07:29:41.682Z,11.26
2018-06-27T07:30:41.713Z,11.35
2018-06-27T07:31:41.833Z,11.35
2018-06-27T07:32:41.778Z,11.33
2018-06-27T07:33:41.763Z,11.25
2018-06-27T07:34:41.748Z,11.37
2018-06-27T07:35:41.703Z,11.45
2018-06-27T07:36:41.731Z,11.28
2018-06-27T07:37:41.707Z,11.27
2018-06-27T07:38:42.447Z,11.26
2018-06-27T07:39:41.708Z,11.32
2018-06-27T07:40:41.760Z,11.37
2018-06-27T07:41:41.692Z,11.41
2018-06-27T07:42:41.663Z,11.31
2018-06-27T07:43:41.669Z,11.28
2018-06-27T07:44:41.692Z,11.25
2018-06-27T07:45:41.683Z,11.33
2018-06-27T07:46:41.687Z,11.34
2018-06-27T07:47:41.687Z,11.48
2018-06-27T07:48:41.776Z,11.37
2018-06-27T07:49:42.015Z,11.33
2018-06-27T07:50:41.712Z,11.3
2018-06-27T07:51:41.685Z,11.33
2018-06-27T07:52:41.746Z,11.35
2018-06-27T07:53:41.714Z,11.35
2018-06-27T07:54:41.750Z,11.26
2018-06-27T07:55:41.683Z,11.33
2018-06-27T07:56:41.722Z,11.25
2018-06-27T07:57:41.724Z,11.34
2018-06-27T07:58:41.781Z,11.36
2018-06-27T07:59:41.711Z,11.24
2018-06-27T08:00:41.795Z,11.28
2018-06-27T08:01:41.703Z,11.16
2018-06-27T08:02:41.739Z,11.26
2018-06-27T08:03:41.732Z,11.39
2018-06-27T08:04:41.814Z,11.24
2018-06-27T08:05:42.877Z,11.29
2018-06-27T08:06:41.784Z,11.28
2018-06-27T08:07:41.716Z,11.31
2018-06-27T08:08:41.802Z,11.42
2018-06-27T08:09:41.751Z,11.47
2018-06-27T08:10:41.700Z,11.35
2018-06-27T08:11:41.767Z,11.29
2018-06-27T08:12:42.303Z,11.28
2018-06-27T08:13:41.769Z,11.36
2018-06-27T08:14:41.729Z,11.46
2018-06-27T08:15:41.753Z,11.43
2018-06-27T08:16:42.721Z,11.34
2018-06-27T08:17:42.300Z,11.44
2018-06-27T08:18:41.750Z,11.41
2018-06-27T08:19:41.727Z,11.4
2018-06-27T08:20:41.704Z,11.36
2018-06-27T08:21:41.789Z,11.35
2018-06-27T08:22:41.745Z,11.24
2018-06-27T08:23:41.788Z,11.27
2018-06-27T08:24:41.707Z,11.21
2018-06-27T08:25:41.720Z,11.24
2018-06-27T08:26:41.722Z,11.34
2018-06-27T08:27:41.773Z,11.51
2018-06-27T08:28:41.860Z,11.64
2018-06-27T08:29:41.754Z,11.6
2018-06-27T08:30:42.778Z,11.47
2018-06-27T08:31:41.768Z,11.45
2018-06-27T08:32:43.174Z,11.29
2018-06-27T08:33:41.729Z,11.36
2018-06-27T08:34:41.881Z,11.25
2018-06-27T08:35:41.982Z,11.37
2018-06-27T08:36:41.767Z,11.33
2018-06-27T08:37:41.743Z,11.41
2018-06-27T08:38:41.757Z,11.26
2018-06-27T08:39:41.779Z,11.3
2018-06-27T08:40:42.084Z,11.27
2018-06-27T08:41:41.815Z,11.39
2018-06-27T08:42:41.728Z,11.39
2018-06-27T08:43:42.002Z,11.64
2018-06-27T08:44:41.770Z,11.54
2018-06-27T08:45:41.732Z,11.37
2018-06-27T08:46:41.900Z,11.45
2018-06-27T08:47:41.763Z,11.43
2018-06-27T08:48:41.720Z,11.49
2018-06-27T08:49:41.725Z,11.3
2018-06-27T08:50:41.727Z,11.28
2018-06-27T08:51:41.880Z,11.27
2018-06-27T08:52:41.758Z,11.24
2018-06-27T08:53:41.805Z,11.35
2018-06-27T08:54:41.761Z,11.56
2018-06-27T08:55:41.750Z,11.44
2018-06-27T08:56:41.731Z,11.4
2018-06-27T08:57:41.761Z,11.37
2018-06-27T08:58:42.075Z,11.37
2018-06-27T08:59:41.755Z,11.31
2018-06-27T09:00:41.735Z,11.36
2018-06-27T09:01:41.752Z,11.46
2018-06-27T09:02:41.776Z,11.5
2018-06-27T09:03:41.762Z,11.34
2018-06-27T09:04:41.738Z,11.43
2018-06-27T09:05:41.749Z,11.46
2018-06-27T09:06:41.739Z,11.47
2018-06-27T09:07:42.024Z,11.33
2018-06-27T09:08:41.756Z,11.38
2018-06-27T09:09:41.728Z,11.59
2018-06-27T09:10:41.755Z,11.41
2018-06-27T09:11:41.787Z,11.43
2018-06-27T09:12:41.851Z,11.62
2018-06-27T09:13:41.844Z,11.46
2018-06-27T09:14:41.765Z,11.36
2018-06-27T09:15:41.785Z,11.49
2018-06-27T09:16:41.744Z,11.37
2018-06-27T09:17:41.756Z,11.6
2018-06-27T09:18:42.620Z,11.44
2018-06-27T09:19:41.724Z,11.7
2018-06-27T09:20:41.890Z,11.57
2018-06-27T09:21:41.745Z,11.69
2018-06-27T09:22:41.738Z,11.74
2018-06-27T09:23:41.779Z,11.57
2018-06-27T09:24:41.816Z,11.55
2018-06-27T09:25:41.773Z,11.43
2018-06-27T09:26:41.799Z,11.49
2018-06-27T09:27:41.756Z,11.4
2018-06-27T09:28:41.788Z,11.52
2018-06-27T09:29:41.798Z,11.64
2018-06-27T09:30:41.756Z,11.6
2018-06-27T09:31:41.889Z,11.69
2018-06-27T09:32:41.739Z,11.59
2018-06-27T09:33:41.895Z,11.39
2018-06-27T09:34:41.817Z,11.27
2018-06-27T09:35:41.778Z,11.37
2018-06-27T09:36:41.785Z,11.42
2018-06-27T09:37:41.756Z,11.37
2018-06-27T09:38:41.793Z,11.45
2018-06-27T09:39:41.789Z,11.43
2018-06-27T09:40:41.781Z,11.26
2018-06-27T09:41:41.909Z,11.2
2018-06-27T09:42:41.811Z,11.12
2018-06-27T09:43:41.850Z,11.13
2018-06-27T09:44:41.833Z,11.2
2018-06-27T09:45:41.825Z,11.23
2018-06-27T09:46:41.787Z,11.2
2018-06-27T09:47:41.834Z,11.11
2018-06-27T09:48:42.006Z,11.21
2018-06-27T09:49:41.764Z,11.43
2018-06-27T09:50:41.862Z,11.24
2018-06-27T09:51:41.761Z,11.13
2018-06-27T09:52:41.793Z,11.22
2018-06-27T09:53:41.802Z,11.3
2018-06-27T09:54:41.786Z,11.4
2018-06-27T09:55:41.851Z,11.25
2018-06-27T09:56:42.227Z,11.38
2018-06-27T09:57:41.772Z,11.31
2018-06-27T09:58:41.901Z,11.24
2018-06-27T09:59:41.942Z,11.48
2018-06-27T10:00:41.819Z,11.38
2018-06-27T10:01:41.891Z,11.08
2018-06-27T10:02:41.851Z,11.08
2018-06-27T10:03:41.825Z,11.16
2018-06-27T10:04:41.795Z,11.14
2018-06-27T10:05:41.813Z,11.28
2018-06-27T10:06:41.820Z,11.25
2018-06-27T10:07:42.215Z,11.22
2018-06-27T10:08:41.824Z,11.31
2018-06-27T10:09:41.841Z,11.11
2018-06-27T10:10:41.764Z,11.13
2018-06-27T10:11:41.778Z,11.17
2018-06-27T10:12:41.801Z,11.35
2018-06-27T10:13:41.910Z,11.14
2018-06-27T10:14:41.861Z,11.03
2018-06-27T10:15:41.846Z,11.07
2018-06-27T10:16:41.777Z,11.13
2018-06-27T10:17:41.788Z,11.02
2018-06-27T10:18:41.828Z,10.67
2018-06-27T10:19:41.796Z,10.7
2018-06-27T10:20:41.804Z,10.88
2018-06-27T10:21:41.823Z,11.08
2018-06-27T10:22:42.427Z,11.21
2018-06-27T10:23:41.858Z,11.27
2018-06-27T10:24:41.911Z,11.36
2018-06-27T10:25:41.871Z,11.24
2018-06-27T10:26:41.835Z,11.34
2018-06-27T10:27:41.923Z,11.42
2018-06-27T10:28:41.824Z,11.37
2018-06-27T10:29:41.992Z,11.27
2018-06-27T10:30:41.801Z,11.28
2018-06-27T10:31:41.869Z,11.28
2018-06-27T10:32:41.822Z,11.16
2018-06-27T10:33:41.892Z,11.15
2018-06-27T10:34:41.985Z,11.19
2018-06-27T10:35:42.189Z,11.15
2018-06-27T10:36:41.835Z,11.35
2018-06-27T10:37:41.885Z,11.2
2018-06-27T10:38:41.877Z,11.13
2018-06-27T10:39:41.871Z,10.88
2018-06-27T10:40:41.822Z,10.7
2018-06-27T10:41:41.812Z,10.91
2018-06-27T10:42:41.812Z,10.73
2018-06-27T10:43:41.825Z,10.81
2018-06-27T10:44:41.802Z,10.9
2018-06-27T10:45:41.958Z,10.42
2018-06-27T10:46:41.940Z,10.77
2018-06-27T10:47:41.853Z,10.86
2018-06-27T10:48:41.831Z,10.59
2018-06-27T10:49:41.925Z,10.65
2018-06-27T10:50:41.942Z,10.76
2018-06-27T10:51:41.908Z,10.69
2018-06-27T10:52:41.844Z,10.61
2018-06-27T10:53:41.838Z,10.85
2018-06-27T10:54:41.836Z,10.81
2018-06-27T10:55:41.811Z,10.82
2018-06-27T10:56:41.800Z,10.49
2018-06-27T10:57:41.858Z,10.19
2018-06-27T10:58:42.115Z,10.19
2018-06-27T10:59:41.952Z,10.01
2018-06-27T11:00:41.869Z,9.89
2018-06-27T11:01:41.816Z,9.78
2018-06-27T11:02:41.899Z,9.77
2018-06-27T11:03:41.811Z,9.92
2018-06-27T11:04:41.825Z,9.98
2018-06-27T11:05:42.017Z,9.98
2018-06-27T11:06:41.836Z,9.98
2018-06-27T11:07:41.824Z,9.88
2018-06-27T11:08:42.033Z,9.97
2018-06-27T11:09:41.950Z,10
2018-06-27T11:10:41.928Z,10.04
2018-06-27T11:11:41.862Z,9.95
2018-06-27T11:12:41.879Z,9.97
2018-06-27T11:13:41.966Z,9.98
2018-06-27T11:14:41.822Z,9.95
2018-06-27T11:15:41.877Z,9.79
2018-06-27T11:16:41.898Z,9.61
2018-06-27T11:17:41.857Z,9.82
2018-06-27T11:18:41.827Z,9.7
2018-06-27T11:19:41.834Z,9.74
2018-06-27T11:20:41.861Z,9.69
2018-06-27T11:21:41.848Z,9.71
2018-06-27T11:22:41.847Z,9.78
2018-06-27T11:23:41.885Z,9.94
2018-06-27T11:24:41.849Z,9.88
2018-06-27T11:25:41.929Z,9.63
2018-06-27T11:26:41.886Z,9.74
2018-06-27T11:27:41.834Z,9.69
2018-06-27T11:28:41.869Z,9.78
2018-06-27T11:29:41.951Z,9.72
2018-06-27T11:30:41.879Z,9.81
2018-06-27T11:31:41.843Z,9.91
2018-06-27T11:32:42.705Z,9.76
2018-06-27T11:33:41.870Z,9.87
2018-06-27T11:34:41.915Z,9.78
2018-06-27T11:35:41.865Z,9.68
2018-06-27T11:36:42.025Z,9.52
2018-06-27T11:37:45.801Z,9.46
2018-06-27T11:38:42.070Z,9.51
2018-06-27T11:39:41.906Z,9.64
2018-06-27T11:40:41.830Z,9.58
2018-06-27T11:41:42.038Z,9.66
2018-06-27T11:42:42.046Z,9.46
2018-06-27T11:43:42.074Z,9.43
2018-06-27T11:44:42.145Z,9.38
2018-06-27T11:45:42.140Z,9.51
2018-06-27T11:46:41.914Z,9.47
2018-06-27T11:47:42.135Z,9.49
2018-06-27T11:48:41.905Z,9.5
2018-06-27T11:49:41.856Z,9.51
2018-06-27T11:50:41.872Z,9.7
2018-06-27T11:51:42.195Z,9.53
2018-06-27T11:52:41.958Z,9.7
2018-06-27T11:53:41.903Z,9.14
2018-06-27T11:54:41.956Z,9.16
2018-06-27T11:55:41.884Z,9.27
2018-06-27T11:56:42.035Z,9.43
2018-06-27T11:57:41.854Z,9.57
2018-06-27T11:58:42.113Z,9.63
2018-06-27T11:59:42.184Z,9.46
2018-06-27T12:00:41.877Z,9.55
2018-06-27T12:01:41.884Z,9.76
2018-06-27T12:02:42.076Z,9.55
2018-06-27T12:03:42.075Z,9.5
2018-06-27T12:04:42.117Z,9.27
2018-06-27T12:05:41.873Z,9.42
2018-06-27T12:06:41.916Z,9.4
2018-06-27T12:07:41.877Z,9.46
2018-06-27T12:08:41.923Z,9.47
2018-06-27T12:09:42.052Z,9.26
2018-06-27T12:10:41.878Z,9.4
2018-06-27T12:11:41.924Z,9.22
2018-06-27T12:12:41.949Z,9.02
2018-06-27T12:13:41.906Z,9.27
2018-06-27T12:14:41.882Z,9.18
2018-06-27T12:15:41.909Z,9.2
2018-06-27T12:16:41.905Z,8.91
2018-06-27T12:17:41.964Z,9.18
2018-06-27T12:18:42.173Z,8.74
2018-06-27T12:19:41.896Z,8.76
2018-06-27T12:20:41.931Z,8.86
2018-06-27T12:21:41.877Z,8.56
2018-06-27T12:22:41.907Z,8.78
2018-06-27T12:23:41.893Z,8.61
2018-06-27T12:24:41.938Z,8.59
2018-06-27T12:25:41.909Z,8.7
2018-06-27T12:26:41.960Z,8.73
2018-06-27T12:27:41.913Z,8.61
2018-06-27T12:28:41.911Z,8.51
2018-06-27T12:29:41.943Z,8.61
2018-06-27T12:30:41.928Z,8.73
2018-06-27T12:31:41.876Z,8.77
2018-06-27T12:32:42.069Z,8.68
2018-06-27T12:33:42.146Z,8.81
2018-06-27T12:34:42.056Z,8.7
2018-06-27T12:35:41.902Z,8.67
2018-06-27T12:36:42.070Z,8.66
2018-06-27T12:37:42.067Z,8.63
2018-06-27T12:38:42.628Z,8.67
2018-06-27T12:39:42.148Z,8.65
2018-06-27T12:40:41.907Z,8.78
2018-06-27T12:41:41.950Z,8.66
2018-06-27T12:42:41.968Z,8.59
2018-06-27T12:43:41.927Z,8.57
2018-06-27T12:44:42.579Z,8.59
2018-06-27T12:45:41.923Z,8.43
2018-06-27T12:46:42.067Z,8.49
2018-06-27T12:47:42.260Z,8.5
2018-06-27T12:48:42.056Z,8.53
2018-06-27T12:49:41.971Z,8.33
2018-06-27T12:50:42.298Z,8.56
2018-06-27T12:51:42.206Z,8.66
2018-06-27T12:52:41.983Z,8.51
2018-06-27T12:53:41.938Z,8.4
2018-06-27T12:54:42.110Z,8.43
2018-06-27T12:55:42.084Z,8.32
2018-06-27T12:56:42.172Z,8.49
2018-06-27T12:57:42.358Z,8.56
2018-06-27T12:58:42.124Z,8.34
2018-06-27T12:59:42.269Z,8.48